Time;durP1;ratioP1;P1;durP2;ratioP2;P2;SDS_P1;SDS_P2;PMS_P1;PMS_P2;Temp;Humidity;BMP_temperature;BMP_pressure;BME280_temperature;BME280_humidity;BME280_pressure;Samples;Min_cycle;Max_cycle;Signal;HPM_P1;HPM_P2
2021/04/30 00:00:30;;;;;;;37.10;21.23;;;;;;;10.05;74.63;97140.38;1785285;80;21259;-72
2021/04/30 00:02:58;;;;;;;32.28;18.52;;;;;;;10.02;74.59;97131.50;1785399;79;21098;-72
2021/04/30 00:05:26;;;;;;;30.65;15.98;;;;;;;10.03;73.80;97139.07;1785236;80;21121;-72
2021/04/30 00:07:52;;;;;;;26.68;15.78;;;;;;;10.02;72.69;97136.12;1785306;79;21022;-72
2021/04/30 00:10:18;;;;;;;29.23;16.85;;;;;;;9.97;72.98;97129.42;1785343;80;21114;-72
2021/04/30 00:12:45;;;;;;;28.57;17.65;;;;;;;9.95;72.64;97138.40;1785359;79;21195;-72
2021/04/30 00:15:12;;;;;;;29.82;17.30;;;;;;;9.98;73.02;97152.13;1785160;80;21082;-72
2021/04/30 00:17:38;;;;;;;29.30;17.52;;;;;;;10.02;75.02;97152.36;1785288;79;21114;-72
2021/04/30 00:20:05;;;;;;;32.83;19.87;;;;;;;10.05;73.72;97153.11;1785320;80;21147;-72
2021/04/30 00:22:31;;;;;;;28.35;17.92;;;;;;;10.08;73.27;97156.04;1785248;79;21027;-72
2021/04/30 00:24:57;;;;;;;28.67;17.42;;;;;;;10.12;73.93;97151.63;1785208;80;21290;-72
2021/04/30 00:27:24;;;;;;;34.20;21.30;;;;;;;10.16;72.60;97164.80;1785260;79;21416;-72
2021/04/30 00:29:50;;;;;;;33.95;20.97;;;;;;;10.17;72.38;97177.27;1785240;80;21039;-72
2021/04/30 00:32:16;;;;;;;41.23;23.12;;;;;;;10.23;72.23;97188.82;1785314;79;21093;-72
2021/04/30 00:34:42;;;;;;;41.18;24.87;;;;;;;10.30;72.37;97197.92;1785338;80;21421;-72
2021/04/30 00:37:09;;;;;;;38.25;22.10;;;;;;;10.36;71.95;97217.85;1785241;79;21251;-72
2021/04/30 00:39:35;;;;;;;39.40;23.02;;;;;;;10.42;72.34;97226.67;1785097;80;21161;-72
2021/04/30 00:42:03;;;;;;;45.73;25.40;;;;;;;10.43;73.06;97216.92;1785303;79;21060;-72
2021/04/30 00:44:29;;;;;;;45.65;25.10;;;;;;;10.45;72.76;97217.42;1757018;80;21118;-72
2021/04/30 00:46:55;;;;;;;38.08;24.10;;;;;;;10.45;72.89;97214.71;1785257;79;21149;-72
2021/04/30 00:49:21;;;;;;;46.25;27.90;;;;;;;10.49;72.97;97217.61;1785267;80;21293;-72
2021/04/30 00:51:47;;;;;;;46.77;27.48;;;;;;;10.53;73.11;97230.03;1785168;79;21118;-72
2021/04/30 00:54:14;;;;;;;59.58;36.17;;;;;;;10.57;72.88;97246.73;1785187;80;21412;-72
2021/04/30 00:56:40;;;;;;;44.40;24.90;;;;;;;10.62;72.90;97256.68;1785204;79;21007;-72
2021/04/30 00:59:07;;;;;;;39.95;23.27;;;;;;;10.61;73.73;97265.91;1785290;80;21488;-72
2021/04/30 01:01:33;;;;;;;35.45;20.88;;;;;;;10.54;75.40;97273.62;1785191;79;21258;-72
2021/04/30 01:03:59;;;;;;;33.48;20.77;;;;;;;10.50;74.27;97275.30;1785138;78;21032;-72
2021/04/30 01:06:26;;;;;;;35.68;20.05;;;;;;;10.49;74.78;97273.69;1785204;79;21544;-72
2021/04/30 01:08:52;;;;;;;33.60;17.32;;;;;;;10.45;78.01;97269.43;1785165;80;21134;-72
2021/04/30 01:11:18;;;;;;;28.20;17.23;;;;;;;10.41;76.24;97266.49;1785223;79;21043;-72
2021/04/30 01:13:44;;;;;;;31.62;19.40;;;;;;;10.31;81.69;97254.48;1785196;80;22136;-72
2021/04/30 01:16:11;;;;;;;31.55;17.98;;;;;;;10.32;80.17;97254.73;1785118;79;21042;-72
2021/04/30 01:18:43;;;;;;;26.25;16.20;;;;;;;10.34;81.47;97250.37;1785245;80;21138;-72
2021/04/30 01:21:09;;;;;;;28.87;15.68;;;;;;;10.35;79.53;97271.77;1785221;79;21212;-71
2021/04/30 01:23:49;;;;;;;30.30;16.25;;;;;;;10.35;78.69;97273.67;1785230;80;21070;-72
2021/04/30 01:26:16;;;;;;;24.98;16.93;;;;;;;10.38;78.45;97277.93;1785196;79;21078;-71
2021/04/30 01:28:43;;;;;;;31.82;19.60;;;;;;;10.47;78.83;97272.64;1785180;80;21075;-71
2021/04/30 01:31:09;;;;;;;25.85;16.15;;;;;;;10.49;79.15;97268.27;1785271;79;21187;-71
2021/04/30 01:33:35;;;;;;;28.85;16.85;;;;;;;10.47;78.80;97267.77;1785305;80;21161;-71
2021/04/30 01:36:01;;;;;;;25.52;14.85;;;;;;;10.47;79.16;97269.93;1785155;79;21139;-71
2021/04/30 01:38:27;;;;;;;33.65;19.50;;;;;;;10.48;79.83;97262.05;1785258;80;21255;-72
2021/04/30 01:40:54;;;;;;;30.85;20.08;;;;;;;10.44;79.88;97259.70;1785059;79;21039;-71
2021/04/30 01:43:20;;;;;;;29.60;17.25;;;;;;;10.41;79.23;97254.30;1785245;80;21127;-72
2021/04/30 01:45:52;;;;;;;26.77;17.80;;;;;;;10.43;79.75;97260.80;1785131;79;21150;-71
2021/04/30 01:48:21;;;;;;;26.10;16.00;;;;;;;10.44;79.55;97258.34;1785231;80;21099;-71
2021/04/30 01:50:48;;;;;;;;;;;;;;;10.50;80.92;97268.52;1787878;79;22126;-72
2021/04/30 01:53:18;;;;;;;25.97;15.03;;;;;;;10.51;80.02;97262.00;1785188;80;20277;-71
2021/04/30 01:55:44;;;;;;;25.27;14.90;;;;;;;10.54;79.30;97265.48;1785263;80;21530;-71
2021/04/30 01:58:11;;;;;;;25.48;14.73;;;;;;;10.54;79.42;97262.23;1785127;80;21126;-72
2021/04/30 02:00:37;;;;;;;21.30;13.98;;;;;;;10.53;79.49;97263.34;1785245;80;21079;-71
2021/04/30 02:03:04;;;;;;;24.80;14.40;;;;;;;10.50;79.91;97260.39;1785176;79;21261;-71
2021/04/30 02:05:31;;;;;;;23.18;14.15;;;;;;;10.49;80.28;97255.53;1778930;78;21138;-72
2021/04/30 02:08:05;;;;;;;24.52;16.82;;;;;;;10.49;80.57;97257.44;1778067;79;21507;-71
2021/04/30 02:10:31;;;;;;;26.25;17.70;;;;;;;10.47;80.59;97259.65;1777338;80;21114;-72
2021/04/30 02:12:57;;;;;;;24.65;15.05;;;;;;;10.47;80.30;97259.65;1777985;79;21071;-71
2021/04/30 02:15:29;;;;;;;29.80;16.62;;;;;;;10.54;80.30;97262.78;1778027;80;21186;-71
2021/04/30 02:17:55;;;;;;;29.48;15.23;;;;;;;10.56;80.19;97264.63;1777903;79;21082;-71
2021/04/30 02:20:23;;;;;;;27.30;16.57;;;;;;;10.55;81.28;97262.48;1778025;80;21043;-71
2021/04/30 02:22:49;;;;;;;28.32;17.50;;;;;;;10.48;81.41;97263.41;1777937;79;21103;-71
2021/04/30 02:25:17;;;;;;;29.65;17.27;;;;;;;10.45;81.09;97264.02;1777997;80;21115;-71
2021/04/30 02:27:43;;;;;;;31.27;16.67;;;;;;;10.42;82.16;97272.19;1777985;79;22086;-71
2021/04/30 02:30:11;;;;;;;23.20;14.65;;;;;;;10.44;81.63;97279.46;1777954;80;21042;-71
2021/04/30 02:32:37;;;;;;;31.20;16.80;;;;;;;10.46;82.12;97283.22;1777960;79;21103;-71
2021/04/30 02:35:11;;;;;;;25.12;15.43;;;;;;;10.50;81.51;97278.00;1777928;80;21110;-71
2021/04/30 02:37:38;;;;;;;23.12;13.80;;;;;;;10.45;82.71;97272.94;1778014;79;21452;-72
2021/04/30 02:40:06;;;;;;;21.82;13.80;;;;;;;10.40;82.33;97279.78;1777973;80;22018;-72
2021/04/30 02:42:32;;;;;;;23.73;14.30;;;;;;;10.42;81.78;97286.25;1778145;79;21055;-72
2021/04/30 02:45:01;;;;;;;23.80;13.53;;;;;;;10.42;87.34;97284.38;1778030;80;21507;-72
2021/04/30 02:47:30;;;;;;;19.27;13.10;;;;;;;10.51;83.93;97280.96;1778133;79;21079;-71
2021/04/30 02:50:00;;;;;;;25.43;14.45;;;;;;;10.47;82.75;97280.77;1777958;80;21070;-72
2021/04/30 02:52:26;;;;;;;22.27;14.45;;;;;;;10.50;82.44;97280.16;1777927;79;21244;-71
2021/04/30 02:54:53;;;;;;;25.77;16.12;;;;;;;10.49;82.34;97266.37;1777878;80;21036;-71
2021/04/30 02:57:19;;;;;;;29.65;17.73;;;;;;;10.48;83.18;97264.77;1777931;79;21102;-71
2021/04/30 02:59:45;;;;;;;30.00;16.90;;;;;;;10.54;82.64;97276.33;1777904;80;21158;-71
2021/04/30 03:02:13;;;;;;;26.40;16.52;;;;;;;10.63;82.36;97271.28;1777995;79;21393;-71
2021/04/30 03:04:39;;;;;;;24.50;17.45;;;;;;;10.73;83.10;97268.94;1777871;80;21263;-72
2021/04/30 03:07:05;;;;;;;25.52;15.83;;;;;;;10.74;83.06;97267.27;1777976;79;21134;-72
2021/04/30 03:09:31;;;;;;;22.93;14.87;;;;;;;10.72;82.63;97260.56;1777923;80;21197;-72
2021/04/30 03:11:58;;;;;;;23.98;15.05;;;;;;;10.66;82.42;97258.48;1777950;79;21102;-73
2021/04/30 03:14:24;;;;;;;23.50;14.03;;;;;;;10.63;82.18;97265.06;1778023;80;21126;-72
2021/04/30 03:16:50;;;;;;;23.75;14.50;;;;;;;10.62;82.15;97264.81;1777976;79;21285;-72
2021/04/30 03:19:16;;;;;;;29.55;18.02;;;;;;;10.66;82.12;97269.88;1777833;80;21518;-72
2021/04/30 03:21:42;;;;;;;26.97;18.92;;;;;;;10.74;81.81;97261.86;1777923;79;21054;-72
2021/04/30 03:24:08;;;;;;;28.15;19.73;;;;;;;10.87;81.84;97271.13;1778038;80;21509;-72
2021/04/30 03:26:35;;;;;;;31.40;18.10;;;;;;;10.87;81.84;97271.13;1778139;79;21150;-72
2021/04/30 03:29:01;;;;;;;59.88;37.15;;;;;;;10.93;81.71;97265.84;1778108;80;21292;-72
2021/04/30 03:31:27;;;;;;;26.65;19.75;;;;;;;10.99;81.61;97271.42;1778087;79;21095;-72
2021/04/30 03:33:54;;;;;;;33.42;18.23;;;;;;;11.03;81.35;97278.98;1778206;80;21149;-72
2021/04/30 03:36:20;;;;;;;30.72;17.80;;;;;;;11.06;81.17;97285.14;1778056;79;21044;-72
2021/04/30 03:38:48;;;;;;;25.30;16.82;;;;;;;11.09;81.15;97293.47;1778096;80;21070;-72
2021/04/30 03:41:14;;;;;;;26.05;16.37;;;;;;;11.12;81.01;97291.53;1778054;79;22171;-72
2021/04/30 03:43:41;;;;;;;29.70;18.62;;;;;;;11.16;80.92;97294.43;1778048;80;21492;-72
2021/04/30 03:46:07;;;;;;;31.10;17.95;;;;;;;11.15;80.73;97296.89;1778129;79;21182;-72
2021/04/30 03:48:33;;;;;;;29.15;16.73;;;;;;;11.12;82.10;97293.44;1778094;80;21555;-72
2021/04/30 03:50:59;;;;;;;31.15;19.70;;;;;;;11.06;81.10;97298.14;1778079;79;21008;-72
2021/04/30 03:53:26;;;;;;;32.15;21.45;;;;;;;10.95;81.12;97299.45;1778108;80;22068;-72
2021/04/30 03:55:52;;;;;;;35.38;23.80;;;;;;;10.89;81.28;97308.21;1777989;79;21055;-72
2021/04/30 03:58:18;;;;;;;38.95;25.08;;;;;;;10.92;81.32;97314.94;1778141;80;21166;-72
2021/04/30 04:00:44;;;;;;;33.85;22.45;;;;;;;10.98;81.28;97324.59;1778046;80;21130;-72
2021/04/30 04:03:11;;;;;;;38.30;26.23;;;;;;;11.06;81.13;97332.03;1778113;80;21142;-72
2021/04/30 04:05:37;;;;;;;43.85;27.22;;;;;;;11.06;81.13;97332.03;1782533;78;22130;-72
2021/04/30 04:08:04;;;;;;;45.17;28.67;;;;;;;11.05;81.99;97336.41;1785263;79;21451;-72
2021/04/30 04:10:31;;;;;;;37.35;22.80;;;;;;;10.91;81.71;97338.52;1785207;80;21761;-72
2021/04/30 04:12:57;;;;;;;30.25;18.60;;;;;;;10.87;82.45;97337.53;1785321;79;21471;-72
2021/04/30 04:15:23;;;;;;;31.27;20.25;;;;;;;10.83;82.77;97338.41;1785196;80;21027;-72
2021/04/30 04:17:49;;;;;;;33.60;21.95;;;;;;;10.74;82.59;97333.66;1785221;79;21224;-72
2021/04/30 04:20:15;;;;;;;30.40;19.05;;;;;;;10.74;82.59;97333.66;1785134;80;21102;-72
2021/04/30 04:22:42;;;;;;;34.25;21.75;;;;;;;10.73;82.55;97336.68;1785246;79;21051;-72
2021/04/30 04:25:09;;;;;;;31.40;20.12;;;;;;;10.73;82.55;97336.68;1785330;80;21047;-72
2021/04/30 04:27:35;;;;;;;28.75;19.27;;;;;;;10.72;83.15;97344.00;1785333;79;21066;-72
2021/04/30 04:30:03;;;;;;;30.68;19.45;;;;;;;10.70;82.53;97348.13;1785212;80;21283;-72
2021/04/30 04:32:29;;;;;;;31.97;19.07;;;;;;;10.76;83.06;97351.53;1785256;79;21091;-72
2021/04/30 04:34:55;;;;;;;35.35;24.67;;;;;;;10.81;84.25;97358.23;1785239;80;21145;-72
2021/04/30 04:37:21;;;;;;;31.25;21.07;;;;;;;10.85;84.28;97368.20;1785245;79;21015;-72
2021/04/30 04:39:47;;;;;;;29.77;21.45;;;;;;;10.95;83.24;97380.22;1785208;80;21146;-72
2021/04/30 04:42:13;;;;;;;30.15;21.52;;;;;;;10.95;83.24;97380.22;1785271;79;22076;-72
2021/04/30 04:44:40;;;;;;;28.17;16.50;;;;;;;10.94;83.15;97381.32;1785157;80;21149;-73
2021/04/30 04:47:06;;;;;;;19.77;13.48;;;;;;;10.95;83.63;97373.99;1785209;79;21547;-72
2021/04/30 04:49:32;;;;;;;24.00;15.35;;;;;;;10.87;83.53;97374.67;1785185;80;21125;-72
2021/04/30 04:51:58;;;;;;;28.87;17.85;;;;;;;10.82;83.46;97385.58;1785297;79;21079;-72
2021/04/30 04:54:26;;;;;;;37.35;25.65;;;;;;;10.87;83.41;97380.89;1785282;80;21186;-72
2021/04/30 04:56:52;;;;;;;33.00;24.50;;;;;;;10.91;84.82;97379.73;1785402;79;21417;-72
2021/04/30 04:59:19;;;;;;;35.88;24.67;;;;;;;10.84;83.76;97376.05;1785207;80;21153;-72
2021/04/30 05:01:45;;;;;;;33.38;24.45;;;;;;;10.84;83.76;97376.05;1785289;79;21162;-72
2021/04/30 05:04:11;;;;;;;33.55;21.75;;;;;;;10.87;83.50;97391.73;1785313;80;21111;-72
2021/04/30 05:06:37;;;;;;;33.33;23.45;;;;;;;10.87;84.06;97385.52;1785153;79;21193;-72
2021/04/30 05:09:04;;;;;;;31.50;20.97;;;;;;;10.87;84.06;97385.52;1785184;80;21146;-72
2021/04/30 05:11:30;;;;;;;29.80;19.82;;;;;;;10.91;83.48;97396.80;1785245;79;21099;-72
2021/04/30 05:13:56;;;;;;;32.98;20.72;;;;;;;10.90;84.33;97396.55;1785221;80;21523;-72
2021/04/30 05:16:22;;;;;;;32.58;21.17;;;;;;;10.94;83.74;97397.59;1785166;79;21052;-72
2021/04/30 05:18:48;;;;;;;32.90;20.95;;;;;;;11.00;83.82;97403.16;1785165;80;21236;-72
2021/04/30 05:21:15;;;;;;;34.75;22.07;;;;;;;11.07;83.73;97407.39;1785148;79;21071;-72
2021/04/30 05:23:41;;;;;;;26.97;17.98;;;;;;;11.09;83.71;97407.89;1785192;80;21079;-72
2021/04/30 05:26:07;;;;;;;19.37;14.68;;;;;;;11.09;83.59;97416.83;1785145;79;21198;-72
2021/04/30 05:28:33;;;;;;;23.25;14.25;;;;;;;11.15;84.44;97432.47;1785287;80;21547;-72
2021/04/30 05:31:00;;;;;;;24.72;17.95;;;;;;;11.14;83.48;97428.95;1785229;79;21522;-72
2021/04/30 05:33:26;;;;;;;27.32;18.75;;;;;;;11.13;83.44;97427.35;1785126;80;21118;-72
2021/04/30 05:35:52;;;;;;;29.50;18.73;;;;;;;11.07;84.30;97417.69;1785197;79;21027;-72
2021/04/30 05:38:18;;;;;;;24.05;18.37;;;;;;;11.07;84.30;97417.69;1785167;80;21158;-72
2021/04/30 05:40:44;;;;;;;27.48;20.65;;;;;;;11.11;85.51;97428.20;1785133;80;21155;-72
2021/04/30 05:43:11;;;;;;;24.15;16.42;;;;;;;11.19;85.17;97423.42;1785237;80;21223;-73
2021/04/30 05:45:40;;;;;;;27.25;17.92;;;;;;;11.27;84.43;97424.66;1785175;80;21439;-72
2021/04/30 05:48:08;;;;;;;32.40;24.12;;;;;;;11.27;84.15;97423.30;1785255;79;21114;-72
2021/04/30 05:50:34;;;;;;;30.52;20.68;;;;;;;11.30;83.90;97422.17;1785249;80;21039;-72
2021/04/30 05:53:00;;;;;;;28.57;18.95;;;;;;;11.30;84.43;97424.08;1786500;79;20988;-72
2021/04/30 05:55:26;;;;;;;28.00;19.12;;;;;;;11.34;84.80;97421.56;1787218;80;21353;-72
2021/04/30 05:57:52;;;;;;;26.52;17.37;;;;;;;11.40;84.55;97423.89;1787560;79;21023;-72
2021/04/30 06:00:19;;;;;;;29.37;17.67;;;;;;;11.43;83.73;97425.19;1786931;80;21122;-72
2021/04/30 06:02:45;;;;;;;24.43;16.35;;;;;;;11.40;84.62;97430.67;1786220;79;21134;-72
2021/04/30 06:05:12;;;;;;;26.25;16.52;;;;;;;11.40;84.71;97433.94;1786539;80;21083;-72
2021/04/30 06:07:38;;;;;;;28.02;18.62;;;;;;;11.43;84.40;97427.91;1786590;79;21186;-72
2021/04/30 06:10:05;;;;;;;25.70;19.27;;;;;;;11.43;84.73;97427.35;1787049;80;21437;-72
2021/04/30 06:12:31;;;;;;;24.02;18.32;;;;;;;11.53;84.23;97443.44;1787322;79;21099;-72
2021/04/30 06:14:57;;;;;;;20.27;14.05;;;;;;;11.58;84.79;97448.78;1786873;80;21118;-71
2021/04/30 06:17:24;;;;;;;20.90;12.78;;;;;;;11.63;84.45;97443.83;1786873;79;21025;-73
2021/04/30 06:19:50;;;;;;;17.20;13.22;;;;;;;11.74;84.11;97452.02;1786781;80;21264;-72
2021/04/30 06:22:16;;;;;;;22.37;14.20;;;;;;;11.89;83.85;97465.89;1786629;79;21075;-71
2021/04/30 06:24:43;;;;;;;21.55;14.68;;;;;;;11.96;83.51;97467.62;1786146;80;21122;-72
2021/04/30 06:27:09;;;;;;;19.40;13.68;;;;;;;12.00;84.01;97469.20;1785473;79;21094;-73
2021/04/30 06:29:35;;;;;;;20.15;14.58;;;;;;;12.08;84.19;97471.21;1785203;80;21142;-72
2021/04/30 06:32:01;;;;;;;25.80;16.12;;;;;;;12.21;83.62;97476.38;1785092;79;21293;-72
2021/04/30 06:34:27;;;;;;;23.30;16.35;;;;;;;12.38;83.29;97475.20;1785078;80;21114;-72
2021/04/30 06:36:54;;;;;;;21.00;14.47;;;;;;;12.53;82.73;97480.86;1785186;79;21448;-72
2021/04/30 06:39:21;;;;;;;21.02;15.72;;;;;;;12.58;82.94;97480.77;1785111;80;21510;-72
2021/04/30 06:41:47;;;;;;;22.40;15.38;;;;;;;12.73;82.60;97479.04;1785203;79;21094;-72
2021/04/30 06:44:14;;;;;;;17.80;12.75;;;;;;;12.93;82.09;97477.23;1785117;80;22041;-72
2021/04/30 06:46:40;;;;;;;18.00;13.40;;;;;;;13.17;81.50;97481.58;1785020;79;21042;-72
2021/04/30 06:49:06;;;;;;;20.88;15.13;;;;;;;13.31;81.14;97478.25;1785150;80;21527;-72
2021/04/30 06:51:32;;;;;;;23.50;17.52;;;;;;;13.52;81.02;97477.99;1785070;79;21054;-72
2021/04/30 06:54:01;;;;;;;21.17;16.20;;;;;;;13.83;81.17;97467.08;1785248;80;21491;-72
2021/04/30 06:56:31;;;;;;;18.00;14.18;;;;;;;14.20;81.20;97464.19;1785194;79;22067;-72
2021/04/30 06:58:57;;;;;;;16.65;13.48;;;;;;;14.46;79.86;97462.35;1785064;80;21066;-71
2021/04/30 07:01:24;;;;;;;16.45;10.48;;;;;;;14.70;79.46;97465.17;1785131;79;21439;-71
2021/04/30 07:03:50;;;;;;;12.68;8.68;;;;;;;14.79;72.44;97464.08;1785099;80;21149;-71
2021/04/30 07:06:19;;;;;;;13.30;9.85;;;;;;;15.14;71.33;97477.15;1782990;79;21007;-73
2021/04/30 07:08:45;;;;;;;12.28;9.65;;;;;;;15.05;68.81;97480.45;1780834;80;21390;-71
2021/04/30 07:11:11;;;;;;;18.87;8.83;;;;;;;15.07;72.12;97484.21;1780572;79;21031;-71
2021/04/30 07:13:37;;;;;;;10.98;8.60;;;;;;;15.29;69.14;97482.66;1780774;80;21118;-71
2021/04/30 07:16:06;;;;;;;12.95;8.98;;;;;;;15.29;67.17;97487.31;1780640;79;21031;-71
2021/04/30 07:18:33;;;;;;;11.00;8.68;;;;;;;15.59;68.14;97482.78;1780692;80;21070;-70
2021/04/30 07:20:59;;;;;;;13.68;8.43;;;;;;;16.22;67.28;97477.82;1780582;79;21647;-71
2021/04/30 07:23:26;;;;;;;12.70;8.78;;;;;;;16.72;65.02;97474.34;1780712;80;21602;-71
2021/04/30 07:25:53;;;;;;;8.40;7.05;;;;;;;17.41;65.14;97473.76;1780614;79;21071;-72
2021/04/30 07:28:19;;;;;;;8.70;6.47;;;;;;;18.00;62.71;97463.87;1780673;80;21099;-72
2021/04/30 07:30:45;;;;;;;12.15;7.28;;;;;;;17.25;56.22;97471.98;1780768;80;21102;-71
2021/04/30 07:33:11;;;;;;;10.32;7.33;;;;;;;17.07;57.89;97469.40;1780662;80;21189;-71
2021/04/30 07:35:39;;;;;;;9.88;7.12;;;;;;;16.86;60.02;97470.78;1731896;82;21160;-71
2021/04/30 07:38:09;;;;;;;9.70;7.65;;;;;;;17.25;60.18;97475.52;1780585;79;21139;-72
2021/04/30 07:40:37;;;;;;;11.73;8.95;;;;;;;17.30;56.51;97469.05;1762127;81;21128;-71
2021/04/30 07:43:03;;;;;;;10.10;7.25;;;;;;;17.72;58.73;97469.78;1780854;79;21035;-72
2021/04/30 07:45:29;;;;;;;9.85;7.00;;;;;;;17.64;55.13;97473.38;1731912;82;21323;-71
2021/04/30 07:47:56;;;;;;;11.03;7.25;;;;;;;16.97;55.11;97462.17;1780505;79;21070;-72
2021/04/30 07:50:22;;;;;;;8.95;7.75;;;;;;;16.71;55.89;97460.44;1731824;82;21138;-72
2021/04/30 07:52:48;;;;;;;10.38;7.62;;;;;;;16.13;56.38;97465.33;1780594;79;21071;-72
2021/04/30 07:55:14;;;;;;;11.05;7.87;;;;;;;15.74;57.64;97470.80;1731851;82;21155;-71
2021/04/30 07:57:40;;;;;;;10.68;8.08;;;;;;;15.44;58.52;97462.24;1780606;79;21201;-71
2021/04/30 08:00:08;;;;;;;9.98;7.33;;;;;;;15.31;59.70;97459.95;1731775;82;21175;-71
2021/04/30 08:02:34;;;;;;;11.85;8.88;;;;;;;15.21;59.73;97460.27;1780591;79;21126;-72
2021/04/30 08:05:01;;;;;;;15.20;9.38;;;;;;;15.15;60.01;97462.37;1731815;82;21147;-71
2021/04/30 08:07:27;;;;;;;11.60;8.88;;;;;;;15.27;60.54;97464.44;1784169;79;21078;-71
2021/04/30 08:09:55;;;;;;;13.98;8.68;;;;;;;15.43;60.57;97460.08;1785096;80;21272;-71
2021/04/30 08:12:21;;;;;;;12.15;8.05;;;;;;;15.53;60.19;97465.19;1785003;79;21075;-71
2021/04/30 08:14:47;;;;;;;11.83;8.15;;;;;;;15.47;59.28;97474.70;1785343;80;21515;-71
2021/04/30 08:17:14;;;;;;;10.53;8.60;;;;;;;15.61;58.99;97477.81;1785192;79;21031;-72
2021/04/30 08:19:40;;;;;;;10.65;8.68;;;;;;;15.20;58.63;97485.39;1785296;80;21126;-72
2021/04/30 08:22:07;;;;;;;11.85;9.45;;;;;;;15.36;59.37;97490.36;1785271;79;21394;-72
2021/04/30 08:24:33;;;;;;;10.88;7.70;;;;;;;15.21;60.44;97492.48;1785164;80;21090;-72
2021/04/30 08:26:59;;;;;;;14.13;8.65;;;;;;;15.15;60.20;97484.20;1785275;79;21413;-72
2021/04/30 08:29:25;;;;;;;13.80;9.55;;;;;;;15.10;60.50;97488.45;1785242;80;21511;-72
2021/04/30 08:31:52;;;;;;;10.98;7.70;;;;;;;15.02;60.79;97489.26;1785229;79;21418;-72
2021/04/30 08:34:18;;;;;;;13.78;9.15;;;;;;;14.85;61.10;97481.06;1785320;80;21234;-72
2021/04/30 08:36:44;;;;;;;10.63;8.05;;;;;;;15.01;61.02;97474.58;1785127;79;21030;-72
2021/04/30 08:39:12;;;;;;;25.43;9.65;;;;;;;15.18;60.29;97482.19;1785265;80;21134;-72
2021/04/30 08:41:38;;;;;;;14.87;6.87;;;;;;;15.20;60.46;97484.03;1785411;79;21043;-72
2021/04/30 08:44:04;;;;;;;15.75;8.03;;;;;;;15.23;60.28;97479.88;1756637;80;21550;-72
2021/04/30 08:46:32;;;;;;;13.80;8.50;;;;;;;15.24;60.45;97483.64;1785149;79;22047;-72
2021/04/30 08:49:09;;;;;;;12.05;10.72;;;;;;;15.37;60.66;97484.57;1785155;80;21099;-72
2021/04/30 08:51:36;;;;;;;26.73;10.70;;;;;;;15.55;60.68;97487.27;1785195;79;21210;-72
2021/04/30 08:54:03;;;;;;;17.95;11.60;;;;;;;15.74;59.44;97487.19;1785269;80;21094;-72
2021/04/30 08:56:29;;;;;;;11.85;7.85;;;;;;;15.68;59.65;97491.78;1785156;79;21059;-72
2021/04/30 08:58:55;;;;;;;14.47;10.08;;;;;;;15.76;59.92;97495.05;1785326;80;22029;-72
2021/04/30 09:01:22;;;;;;;13.32;8.13;;;;;;;15.82;59.80;97491.59;1785035;79;21447;-72
2021/04/30 09:03:49;;;;;;;30.32;16.05;;;;;;;15.86;59.70;97489.80;1785231;80;21158;-72
2021/04/30 09:06:18;;;;;;;13.48;8.75;;;;;;;15.96;59.41;97494.89;1784320;79;21201;-72
2021/04/30 09:08:49;;;;;;;13.65;9.83;;;;;;;16.01;59.48;97498.83;1780913;80;21495;-71
2021/04/30 09:11:31;;;;;;;9.25;7.60;;;;;;;16.09;58.70;97499.36;1780758;79;21120;-71
2021/04/30 09:14:27;;;;;;;14.03;8.70;;;;;;;16.22;58.56;97505.16;1779967;80;21119;-72
2021/04/30 09:17:14;;;;;;;11.05;8.78;;;;;;;16.45;57.92;97505.70;1780763;79;21020;-72
2021/04/30 09:19:47;;;;;;;9.65;7.05;;;;;;;17.49;56.39;97509.05;1780846;80;21063;-71
2021/04/30 09:22:25;;;;;;;30.75;21.65;;;;;;;19.74;51.37;97501.89;1780363;79;21012;-71
2021/04/30 09:24:54;;;;;;;8.95;6.28;;;;;;;19.52;49.78;97496.92;1781062;80;21110;-71
2021/04/30 09:27:34;;;;;;;11.28;6.87;;;;;;;19.76;49.48;97492.70;1780773;79;21067;-71
2021/04/30 09:30:31;;;;;;;21.25;15.48;;;;;;;20.66;47.67;97492.39;1780803;80;21452;-72
2021/04/30 09:33:11;;;;;;;13.25;8.35;;;;;;;23.35;40.55;97491.33;1728781;80;21095;-72
2021/04/30 09:35:47;;;;;;;15.80;9.83;;;;;;;24.09;40.11;97482.25;1780820;80;21063;-73
2021/04/30 09:38:33;;;;;;;14.13;9.65;;;;;;;23.42;40.49;97487.86;1780726;80;21148;-72
2021/04/30 09:41:09;;;;;;;10.60;6.37;;;;;;;23.21;37.92;97494.70;1780636;79;21083;-72
2021/04/30 09:43:51;;;;;;;8.33;6.53;;;;;;;20.54;42.32;97497.44;1780712;80;21086;-73
2021/04/30 09:46:32;;;;;;;10.08;6.35;;;;;;;20.14;45.65;97505.86;1780725;79;21436;-72
2021/04/30 09:49:05;;;;;;;9.15;6.55;;;;;;;19.56;47.03;97509.62;1780870;80;21063;-72
2021/04/30 09:51:53;;;;;;;7.70;6.08;;;;;;;18.71;47.75;97510.63;1780763;79;22162;-72
2021/04/30 09:54:26;;;;;;;9.03;6.20;;;;;;;18.24;48.64;97504.80;1780976;80;21049;-72
2021/04/30 09:57:23;;;;;;;9.35;6.55;;;;;;;18.75;48.79;97499.78;1762157;81;21061;-72
2021/04/30 09:59:59;;;;;;;8.33;6.17;;;;;;;18.36;49.90;97491.08;1780731;80;21058;-72
2021/04/30 10:02:30;;;;;;;9.95;6.15;;;;;;;19.22;48.79;97490.38;1762194;81;21115;-72
2021/04/30 10:04:58;;;;;;;8.70;6.45;;;;;;;20.47;41.95;97486.27;1779946;80;22159;-73
2021/04/30 10:07:31;;;;;;;7.75;5.47;;;;;;;22.07;41.73;97488.81;1756099;80;21594;-73
2021/04/30 10:10:17;;;;;;;8.78;5.33;;;;;;;21.88;40.14;97484.70;1732421;82;21108;-73
2021/04/30 10:12:47;;;;;;;13.83;5.58;;;;;;;23.64;40.51;97482.80;1731436;81;21098;-72
2021/04/30 10:15:19;;;;;;;30.23;7.28;;;;;;;26.42;37.09;97478.89;1731774;82;21109;-73
2021/04/30 10:17:46;;;;;;;6.17;5.10;;;;;;;27.58;34.10;97476.22;1703568;82;21144;-73
2021/04/30 10:20:15;;;;;;;7.37;4.70;;;;;;;27.34;30.31;97477.12;1732533;82;21109;-73
2021/04/30 10:22:42;;;;;;;;;;;;;;;25.93;29.63;97485.95;1787737;79;21040;-74
2021/04/30 10:25:10;;;;;;;6.60;4.77;;;;;;;26.81;31.66;97482.20;1785411;80;20215;-74
2021/04/30 10:27:38;;;;;;;;;;;;;;;26.95;30.77;97476.03;1787876;79;21118;-73
2021/04/30 10:30:19;;;;;;;9.15;5.28;;;;;;;28.17;27.54;97467.14;1785290;80;21260;-74
2021/04/30 10:33:39;;;;;;;5.83;5.15;;;;;;;27.97;32.51;97460.72;1784494;79;21129;-73
2021/04/30 10:36:15;;;;;;;5.30;4.35;;;;;;;27.66;29.02;97464.45;1785108;79;21099;-74
2021/04/30 10:38:53;;;;;;;5.05;3.92;;;;;;;29.06;29.44;97458.81;1785127;80;21019;-75
2021/04/30 10:41:31;;;;;;;7.17;6.45;;;;;;;25.87;28.22;97466.70;1785121;79;20992;-73
2021/04/30 10:44:17;;;;;;;8.03;6.33;;;;;;;24.98;30.85;97463.56;1784730;80;21194;-74
2021/04/30 10:46:45;;;;;;;8.25;4.10;;;;;;;22.84;34.45;97464.19;1785062;79;21039;-73
2021/04/30 10:49:21;;;;;;;5.60;4.60;;;;;;;21.74;37.01;97470.07;1785326;80;21035;-73
2021/04/30 10:52:21;;;;;;;9.28;4.87;;;;;;;21.10;38.06;97456.37;1785143;79;21106;-73
2021/04/30 10:55:06;;;;;;;9.75;7.95;;;;;;;20.11;40.12;97461.78;1785286;80;21467;-72
2021/04/30 10:58:00;;;;;;;6.08;4.47;;;;;;;20.15;40.77;97462.06;1784812;79;39400;-72
2021/04/30 11:00:36;;;;;;;8.50;5.15;;;;;;;19.06;42.02;97460.14;1785051;80;21138;-72
2021/04/30 11:03:16;;;;;;;6.75;5.35;;;;;;;18.88;42.93;97454.13;1785175;79;21034;-71
2021/04/30 11:06:00;;;;;;;9.20;5.97;;;;;;;18.79;43.23;97459.51;1785216;80;21044;-72
2021/04/30 11:08:52;;;;;;;11.33;5.20;;;;;;;18.78;42.99;97455.97;1785129;80;21491;-72
2021/04/30 11:11:34;;;;;;;9.48;5.47;;;;;;;18.71;42.80;97461.23;1784843;79;21188;-72
2021/04/30 11:14:25;;;;;;;8.70;4.45;;;;;;;18.73;43.31;97459.55;1785103;80;21575;-72
2021/04/30 11:16:54;;;;;;;7.87;4.00;;;;;;;18.76;43.48;97456.09;1785136;79;21476;-71
2021/04/30 11:19:22;;;;;;;6.80;4.00;;;;;;;18.51;41.44;97460.22;1785075;80;21055;-71
2021/04/30 11:21:54;;;;;;;5.87;4.60;;;;;;;18.46;42.43;97466.53;1785410;79;21079;-71
2021/04/30 11:24:44;;;;;;;8.88;4.05;;;;;;;18.44;42.31;97450.39;1785140;80;21171;-71
2021/04/30 11:27:29;;;;;;;5.45;4.08;;;;;;;18.51;42.91;97458.05;1783823;79;21126;-71
2021/04/30 11:30:20;;;;;;;5.20;3.90;;;;;;;18.66;40.89;97465.61;1785133;80;21111;-71